Afton, CA

1:57 PM PDT on July 06, 2015 (GMT -0700)
The Ranch | | Change Station
CLOSE
Current Station
Personal Weather Station
Location: Live Oak, CA
Elevation: 79 ft
Nearby Weather Stations

Elev 79 ft 39.30 °N, 121.83 °W | Updated 4 seconds ago

Clear
Clear
87.6 °F
Feels Like 89 °F
N
0.0
Wind Variable Wind from East
Gusts 0.0 mph

Today
High -- | Low -- °F
--% Chance of Precip.
Yesterday
High -- | Low -- °F
Precip. -- in
5:47 AM 8:37 PM
Waning Gibbous, 72% visible
Pressure 29.99 in
Visibility 10.0 miles
Clouds Clear
Heat Index 89 °F
Dew Point 64 °F
Humidity 45%
Rainfall 0.00 in
Snow Depth Not available.
UV 11 out of 12
Pollen 5.30 out of 12
Air Quality Not available.
Flu Activity Not available.
METAR KOVE 062053Z AUTO VRB03KT 10SM CLR 29/15 A2999 RMK AO2 SLP155 T02940150 58013

More Conditions Fewer Conditions

Pressure 29.99 in
Visibility 10.0 miles
Clouds Clear
Heat Index 89 °F
Dew Point 64 °F
Humidity 45%
Rainfall 0.00 in
Snow Depth Not available.
UV 11 out of 12
Pollen 5.30 out of 12
Air Quality Not available.
Flu Activity Not available.
METAR KOVE 062053Z AUTO VRB03KT 10SM CLR 29/15 A2999 RMK AO2 SLP155 T02940150 58013

More Conditions Fewer Conditions

10-Day Weather Forecast

×

Almanac

Astronomy

Jul. 06, 2015 Rise Set
Actual Time
Civil Twilight
Nautical Twilight
Astronomical Twilight
Moon
Length of Visible Light
Length of Day
Tomorrow will be .
, % of the Moon is Illuminated

Today's Extremes

State Highs State Lows

Community

WunderPhotos

Upload Photos

1,835,638 photos uploaded!

WunderBlogs® & News

Nearby

Air Quality

  Air Quality AQ Index Pollutant
Not available.

Snow Depth

Station Depth Elevation

Earthquake Activity

City Distance Mag. Time & Date
Minimum magnitude displayed is 2.5.

Coastal Water Temperatures

Place Temperature

Stations

Nearby Weather Stations

Station Location Temp. Windchill Dew Point Humidity Wind Precip. Elev Updated Type